クグルクトゥク の空港の天気 - METARとTAF

Coppermine ( CYCO / YCO ) - カナダ ヌナブト準州Kugluktuk
飛行場実況気象(Metar)
観測時間02/17 07:00 MST (02/17 14:00 UTC)
風向・風速北西 2m/s
視程10km以上
天気現象細氷
少しの雲 雲底高度 2740m
気温-37℃
湿度66%
気圧1040hPa
METARCYCO 171400Z 32004KT 260V330 12SM IC FEW090 M37/M41 A3069 RMK AS1 SLP400
過去の天気等 Google飛行場航空写真 Wunderground天気予報

過去48時間のMETAR

飛行場予報(TAF)
発表時間: 2/17 05:38 MST (2/17 12:38 UTC)
予報対象時間: 17日6時 MST ~ 17日18時 MST
風向・風速不定 2m/s
視程10km以上
天気現象細氷
なし
17日7時 MST ~ 17日9時 MST に徐々に
風向・風速南西 5m/s
TAF CYCO 171238Z 1713/1801 VRB03KT P6SM IC SKC
BECMG 1714/1716 22010KT RMK NXT FCST BY 171900Z